»·PEaware :: N668MP KSBA-KPSP

N668MP :: KSBA-KPSP

FLIGHT INFORMATION

Flight Status: Arrived
Operator: Privately registered:
United States
More flights under this callsign
Pilot: Anonymous 10623 (10623)
Aircraft: BRITISH AERO BAe-3200 JETSTREAM SUPER 31
(JS32)
More flights by this aircraft type
Origin: KSBA Santa Barbara Mun
United States
Destination: KPSP Palm Springs Intl
United States
More flights between these airports :: More routes between these airports
Route: +KWANG5 HENER PMD V137 PSP
File this flight plan on PilotEdge
Remarks:
Altitude:
(Current/Filed)
15,000ft
Speed:
(Current/Filed)
244kts
Departed: 21-Aug-17 10:23 AM
Arrived: 21-Aug-17 11:22 AM
Distance/Time
Traveled:
169nm/0:59
Distance/Time
To Go:
Arrived

Flight Plot

Page will automatically refresh every two minutes.


Map Options




Map Legend


Flown Route
Filed Route
Departure Airport
Arrival Airport
Navaid (VOR, NDB)
Fix

Horizontal Profiles

Position Reports

Time Latitude Longitude Heading Altitude Ground
Speed
21-Aug-17 10:01 34.421943 -119.836033 164 16ft 0kts
21-Aug-17 10:02 34.421943 -119.836033 164 16ft 0kts
21-Aug-17 10:03 34.421943 -119.836033 164 16ft 0kts
21-Aug-17 10:04 34.421943 -119.836033 164 16ft 0kts
21-Aug-17 10:05 34.421943 -119.836033 164 16ft 0kts
21-Aug-17 10:06 34.421943 -119.836033 164 16ft 0kts
21-Aug-17 10:07 34.421943 -119.836033 164 16ft 0kts
21-Aug-17 10:08 34.421943 -119.836033 164 16ft 0kts
21-Aug-17 10:09 34.421943 -119.836033 164 16ft 0kts
21-Aug-17 10:10 34.421943 -119.836033 164 16ft 0kts
21-Aug-17 10:11 34.421943 -119.836033 164 16ft 0kts
21-Aug-17 10:12 34.421943 -119.836033 164 16ft 0kts
21-Aug-17 10:13 34.421943 -119.836033 164 16ft 0kts
21-Aug-17 10:14 34.421943 -119.836033 164 16ft 0kts
21-Aug-17 10:15 34.421943 -119.836033 164 16ft 0kts
21-Aug-17 10:16 34.421943 -119.836033 164 16ft 0kts
21-Aug-17 10:17 34.421943 -119.836033 164 16ft 0kts
21-Aug-17 10:18 34.421943 -119.836033 164 16ft 0kts
21-Aug-17 10:19 34.421659 -119.836205 253 16ft 0kts
21-Aug-17 10:20 34.421659 -119.836205 253 16ft 0kts
21-Aug-17 10:21 34.421829 -119.836557 357 16ft 6kts
21-Aug-17 10:22 34.423968 -119.837453 350 16ft 12kts
21-Aug-17 10:23 34.426713 -119.837623 86 16ft 8kts
21-Aug-17 10:24 34.427038 -119.835191 354 16ft 0kts
21-Aug-17 10:25 34.427103 -119.835198 354 16ft 2kts
21-Aug-17 10:26 34.427895 -119.835525 264 16ft 0kts
21-Aug-17 10:27 34.427355 -119.864613 269 800ft 118kts
21-Aug-17 10:28 34.406645 -119.886319 142 2136ft 140kts
21-Aug-17 10:29 34.396136 -119.839909 85 3615ft 158kts
21-Aug-17 10:30 34.398230 -119.791226 95 5422ft 144kts
21-Aug-17 10:31 34.390707 -119.744568 107 6878ft 146kts
21-Aug-17 10:32 34.377008 -119.696836 112 7992ft 176kts
21-Aug-17 10:33 34.356249 -119.637422 114 7993ft 235kts
21-Aug-17 10:34 34.328935 -119.564796 115 8508ft 243kts
21-Aug-17 10:35 34.305647 -119.498422 87 10128ft 206kts
21-Aug-17 10:36 34.314085 -119.438658 85 11320ft 200kts
21-Aug-17 10:37 34.319601 -119.375022 86 12437ft 204kts
21-Aug-17 10:38 34.324804 -119.309976 87 13460ft 208kts
21-Aug-17 10:39 34.329562 -119.248191 87 14325ft 211kts
21-Aug-17 10:40 34.342955 -119.183203 75 14979ft 223kts
21-Aug-17 10:41 34.361007 -119.114006 74 14991ft 239kts
21-Aug-17 10:42 34.380338 -119.040188 74 14992ft 248kts
21-Aug-17 10:43 34.401051 -118.961068 76 14991ft 253kts
21-Aug-17 10:44 34.421564 -118.882353 77 14990ft 251kts
21-Aug-17 10:45 34.441696 -118.804839 78 14990ft 248kts
21-Aug-17 10:46 34.460232 -118.733156 78 14991ft 245kts
21-Aug-17 10:47 34.477240 -118.667286 78 14993ft 243kts
21-Aug-17 10:48 34.497116 -118.590122 78 14996ft 242kts
21-Aug-17 10:49 34.516917 -118.513030 78 14999ft 241kts
21-Aug-17 10:50 34.536220 -118.437656 78 15004ft 241kts
21-Aug-17 10:51 34.555822 -118.360900 78 15011ft 240kts
21-Aug-17 10:52 34.575517 -118.284453 79 15021ft 243kts
21-Aug-17 10:53 34.595380 -118.206368 79 15023ft 246kts
21-Aug-17 10:54 34.615332 -118.127556 79 15026ft 247kts
21-Aug-17 10:55 34.622139 -118.049277 117 15040ft 229kts
21-Aug-17 10:56 34.593294 -117.980733 121 15026ft 230kts
21-Aug-17 10:57 34.562139 -117.912090 121 15001ft 233kts
21-Aug-17 10:58 34.530605 -117.843167 121 15000ft 235kts
21-Aug-17 10:59 34.498889 -117.774033 121 15001ft 235kts
21-Aug-17 11:00 34.466926 -117.704503 121 15003ft 236kts
21-Aug-17 11:01 34.435532 -117.636348 121 15006ft 236kts
21-Aug-17 11:02 34.405168 -117.570554 121 15007ft 235kts
21-Aug-17 11:03 34.375083 -117.505488 121 15003ft 235kts
21-Aug-17 11:04 34.343249 -117.436770 121 14997ft 236kts
21-Aug-17 11:05 34.312138 -117.369744 121 14992ft 236kts
21-Aug-17 11:06 34.281540 -117.303457 122 15015ft 236kts
21-Aug-17 11:07 34.251448 -117.238731 122 15010ft 236kts
21-Aug-17 11:08 34.221272 -117.174069 122 15008ft 237kts
21-Aug-17 11:09 34.190209 -117.107638 122 15007ft 237kts
21-Aug-17 11:10 34.157812 -117.038474 122 15007ft 237kts
21-Aug-17 11:11 34.125596 -116.969857 123 15006ft 238kts
21-Aug-17 11:12 34.092901 -116.900339 123 15006ft 239kts
21-Aug-17 11:13 34.059857 -116.830217 123 14987ft 241kts
21-Aug-17 11:14 34.026892 -116.760387 123 15051ft 239kts
21-Aug-17 11:15 33.994444 -116.691803 123 14627ft 238kts
21-Aug-17 11:16 33.961971 -116.623309 122 13067ft 234kts
21-Aug-17 11:17 33.930301 -116.556610 122 11179ft 228kts
21-Aug-17 11:18 33.899214 -116.491267 122 9329ft 224kts
21-Aug-17 11:19 33.868302 -116.427873 122 7574ft 221kts
21-Aug-17 11:20 33.837757 -116.364909 122 5845ft 218kts
21-Aug-17 11:21 33.793988 -116.369065 260 4296ft 209kts
21-Aug-17 11:22 33.793020 -116.431995 227 2787ft 184kts
21-Aug-17 11:23 33.769643 -116.470253 325 1561ft 162kts
21-Aug-17 11:24 33.807857 -116.488176 324 848ft 137kts
21-Aug-17 11:25 33.829604 -116.507597 325 480ft 41kts
21-Aug-17 11:26 33.833347 -116.512391 225 480ft 13kts
21-Aug-17 11:27 33.829331 -116.509557 140 480ft 22kts
21-Aug-17 11:28 33.825077 -116.506511 143 480ft 13kts
21-Aug-17 11:29 33.821871 -116.505957 207 480ft 13kts
21-Aug-17 11:30 33.820772 -116.507768 42 480ft 4kts
21-Aug-17 11:31 33.821069 -116.507446 37 480ft 0kts
21-Aug-17 11:32 33.821069 -116.507446 37 480ft 0kts

Navigation Log

Ident Type
Flight plan parsing failed, navigation log unavailable